x

San Francisco - 18nm West Of San Francisco, Ca (46026) Wave Buoy

9:50am - Tue 24th May 2016 All times are PDT. -7 hours from GMT.

  • Sig Wave height 3.3ft
  • Swell Direction
  • Peak Period 8s
  • Average Period 5s
  • Wind
    9mph, 11mph gusts
  • Sea Temp 53°f
  • Air Temp 53°f
  • Sea Pressure 1015.1mb
  • San Francisco - 18nm West Of San Francisco, Ca
  • San Francisco - 18nm West Of San Francisco, Ca

More Historic Weather Station data

Upgrade to MSW Pro to gain access to the past 30 days of data for over 8000 Wavebouys and Weather Stations around the globe.

Join Pro

Comparision Forecast

View Surf forecast
   
Tue 05/24 9:50am 3.5ft 8s 5s 9 11 mph 1015.1mb 53f 53f
8:50am 3ft 5s 5s 11
mph
1014.4mb 52f 53f
7:50am 3ft 8s 5s 11
mph
1014mb 52f 54f
6:50am 3ft 5s 5s 13
mph
1013.4mb 52f 53f
5:50am 3.5ft 5s 5s 13 16 mph 1013mb 52f 53f
4:50am 3.5ft 5s 5s 11 13 mph 1012.6mb 53f 53f
3:50am 3.5ft 5s 5s 16 20 mph 1012.3mb 53f 54f
2:50am 3.5ft 8s 5s 16 18 mph 1012.4mb 53f 53f
1:50am 3ft 8s 5s 13 18 mph 1012.8mb 53f 54f
12:50am 2.5ft 8s 5s 16 18 mph 1013mb 53f 54f
Mon 05/23 11:50pm 2.5ft 8s 5s 11 13 mph 1013.3mb 53f 54f
10:50pm 2.5ft 8s 5s 13 16 mph 1013.5mb 53f 54f
9:50pm 2.5ft 8s 5s 13 16 mph 1013.3mb 53f 54f
8:50pm 2.5ft 8s 6s 11
mph
1013.4mb 53f 54f
7:50pm 2.5ft 9s 6s 11 13 mph 1013.3mb 54f 54f
6:50pm 2.5ft 8s 6s 9 11 mph 1013.3mb 54f 54f
5:50pm 2.5ft 9s 6s 9 11 mph 1013.6mb 54f 54f
3:50pm 2.5ft 8s 6s 9 11 mph 1014.3mb 55f 55f
2:50pm 2.5ft 9s 7s 7 9 mph 1014.5mb 54f 55f
1:50pm 2.5ft 16s 7s 7 9 mph 1014.7mb 54f 55f
12:50pm 2.5ft 8s 6s 9
mph
1015mb 53f 55f
11:50am 2.5ft 10s 6s 9
mph
1015.2mb 53f 54f
10:50am 3ft 8s 6s 7 9 mph 1015.3mb 53f 54f
9:50am 3ft 9s 6s 7
mph
1015.3mb 53f 53f
8:50am 3ft 10s 6s 7
mph
1015.4mb 52f 53f
7:50am 3ft 9s 6s 4 7 mph 1015.4mb 52f 53f
6:50am 3.5ft 9s 6s 9
mph
1015.4mb 52f 53f
5:50am 3.5ft 10s 6s 9 11 mph 1015.3mb 52f 53f
4:50am 3.5ft 9s 6s 11 13 mph 1015.2mb 52f 53f
3:50am 3.5ft 9s  -  9 11 mph 1015.5mb 52f 53f
2:50am 3.5ft 10s 6s 11 13 mph 1015.8mb 52f 53f
1:50am 3.5ft 9s 7s 9 11 mph 1016.3mb 52f 53f
12:50am 3.5ft 8s 7s 11 13 mph 1016.7mb 52f 53f
Sun 05/22 11:50pm 3.5ft 10s 7s 11 13 mph 1017mb 53f 53f
10:50pm 3.5ft 9s 7s 11 13 mph 1017.4mb 53f 53f
9:50pm 3.5ft 9s 7s 9 11 mph 1017.5mb 53f 54f
8:50pm 3.5ft 9s 7s 9
mph
1017.5mb 53f 54f
7:50pm 3.5ft 11s 7s 9 11 mph 1017.7mb 53f 55f
6:50pm 3.5ft 10s 7s 9 11 mph 1018mb 53f 55f
5:50pm 3.5ft 9s 7s 9
mph
1018.4mb 54f 55f
4:50pm 3.5ft 9s 7s 9
mph
1018.7mb 55f 55f
3:50pm 4.5ft 9s 7s 7 9 mph 1019.2mb 55f 55f
2:50pm 4.5ft 11s 7s 9
mph
1019.8mb 55f 55f
1:50pm 4.5ft 9s 7s 7
mph
1020mb 56f 55f
12:50pm 4.5ft 10s 7s 7 9 mph 1020.2mb 56f 54f
11:50am 4.5ft 10s 8s 4 7 mph 1020.3mb 55f 53f
10:50am 4.5ft 11s 7s 4 7 mph 1020.2mb 53f 52f
9:50am 4.5ft 11s 7s 2
mph
1020.2mb 53f 53f
8:50am 4.5ft 11s 7s 2
mph
1020mb 52f 52f
7:50am 4.5ft 11s 7s  -  2 mph 1019.7mb 52f 51f
6:50am 4.5ft 11s 7s 2
mph
1019.4mb 52f 51f
5:50am 4.5ft 9s 7s 2 4 mph 1019.1mb 52f 52f
4:50am 4.5ft 11s 8s 4 7 mph 1018.8mb 52f 52f
3:50am 4.5ft 11s 8s 4 7 mph 1018.7mb 51f 52f
2:50am 5ft 11s 8s 4 7 mph 1018.9mb 52f 52f
1:50am 5.5ft 11s 8s 4
mph
1019.1mb 52f 52f
12:50am 5ft 10s 8s 7
mph
1019.2mb 52f 52f
Sat 05/21 11:50pm 5ft 10s 8s 7
mph
1019.2mb 52f 52f
10:50pm 4.5ft 11s 7s 4 7 mph 1019mb 52f 52f
9:50pm 4.5ft 9s 8s 4 7 mph 1018.6mb 52f 53f
8:50pm 5ft 10s 7s 7 9 mph 1018.3mb 52f 53f
7:50pm 5.5ft 10s 7s 7 9 mph 1018mb 53f 54f
6:50pm 5.5ft 10s 8s 7 9 mph 1018mb 53f 54f
5:50pm 5.5ft 10s 7s 9
mph
1018mb 53f 54f
4:50pm 5.5ft 10s 7s 9
mph
1017.8mb 53f 54f
3:50pm 6ft 10s 8s 9 11 mph 1017.8mb 53f 54f
2:50pm 5.5ft 10s 7s 7 9 mph 1017.8mb 52f 54f
1:50pm 6ft 10s 8s 7 9 mph 1017.4mb 52f 53f
12:50pm 6ft 10s 8s 7 9 mph 1017.3mb 52f 53f
11:50am 6ft 10s 7s 7
mph
1017.2mb 52f 53f
10:50am 6ft 10s 8s 7
mph
1016.7mb 51f 52f
9:50am 6.5ft 10s 8s 4 7 mph 1016.4mb 51f 52f
8:50am 6ft 10s 8s 7 9 mph 1016mb 51f 52f
7:50am 6.5ft 11s 8s 7 9 mph 1015.4mb 51f 52f
6:50am 6.5ft 10s 8s 9
mph
1014.9mb 50f 52f
5:50am 7ft 10s 8s 9
mph
1014.5mb 50f 52f
4:50am 6.5ft 10s 8s 9
mph
1014.5mb 50f 52f
3:50am 6.5ft 10s 8s 9 11 mph 1014.5mb 50f 52f
2:50am 6.5ft 10s 7s 9
mph
1014.4mb 50f 52f
1:50am 6ft 10s 7s 7 9 mph 1014.3mb 51f 52f
12:50am 6ft 9s 7s 7 9 mph 1014.2mb 51f 52f
Fri 05/20 11:50pm 6.5ft 10s 7s 13 16 mph 1013.8mb 50f 52f
10:50pm 7ft 10s 8s 13 18 mph 1013.7mb 51f 52f
9:50pm 6.5ft 10s 7s 13 16 mph 1013.5mb 51f 52f
8:50pm 7ft 10s 7s 11 13 mph 1013.1mb 51f 52f
7:50pm 7.5ft 11s 7s 13 16 mph 1012.7mb 51f 52f
6:50pm 7ft 10s 7s 16 18 mph 1012.2mb 51f 53f